sensor_id;sensor_type;location;lat;lon;timestamp;temperature;humidity
3602;DHT22;1815;50.950;6.920;2022-08-20T00:00:19;23.80;99.90
3602;DHT22;1815;50.950;6.920;2022-08-20T00:02:49;23.80;99.90
3602;DHT22;1815;50.950;6.920;2022-08-20T00:05:19;23.70;99.90
3602;DHT22;1815;50.950;6.920;2022-08-20T00:07:45;23.70;99.90
3602;DHT22;1815;50.950;6.920;2022-08-20T00:10:11;23.70;99.90
3602;DHT22;1815;50.950;6.920;2022-08-20T00:12:37;23.70;99.90
3602;DHT22;1815;50.950;6.920;2022-08-20T00:15:08;23.70;99.90
3602;DHT22;1815;50.950;6.920;2022-08-20T00:17:34;23.70;99.90
3602;DHT22;1815;50.950;6.920;2022-08-20T00:20:08;23.60;99.90
3602;DHT22;1815;50.950;6.920;2022-08-20T00:22:34;23.60;99.90
3602;DHT22;1815;50.950;6.920;2022-08-20T00:25:01;23.60;99.90
3602;DHT22;1815;50.950;6.920;2022-08-20T00:27:27;23.60;99.90
3602;DHT22;1815;50.950;6.920;2022-08-20T00:29:53;23.50;99.90
3602;DHT22;1815;50.950;6.920;2022-08-20T00:32:19;23.50;99.90
3602;DHT22;1815;50.950;6.920;2022-08-20T00:34:44;23.40;99.90
3602;DHT22;1815;50.950;6.920;2022-08-20T00:37:10;23.40;99.90
3602;DHT22;1815;50.950;6.920;2022-08-20T00:39:36;23.30;99.90
3602;DHT22;1815;50.950;6.920;2022-08-20T00:42:02;23.20;99.90
3602;DHT22;1815;50.950;6.920;2022-08-20T00:44:28;23.10;99.90
3602;DHT22;1815;50.950;6.920;2022-08-20T00:46:54;23.10;99.90
3602;DHT22;1815;50.950;6.920;2022-08-20T00:49:26;23.00;99.90
3602;DHT22;1815;50.950;6.920;2022-08-20T00:54:34;22.90;99.90
3602;DHT22;1815;50.950;6.920;2022-08-20T00:57:08;22.80;99.90
3602;DHT22;1815;50.950;6.920;2022-08-20T00:59:36;22.80;99.90
3602;DHT22;1815;50.950;6.920;2022-08-20T01:02:08;22.80;99.90
3602;DHT22;1815;50.950;6.920;2022-08-20T01:04:36;22.80;99.90
3602;DHT22;1815;50.950;6.920;2022-08-20T01:07:03;22.70;99.90
3602;DHT22;1815;50.950;6.920;2022-08-20T01:09:31;22.70;99.90
3602;DHT22;1815;50.950;6.920;2022-08-20T01:11:57;22.60;99.90
3602;DHT22;1815;50.950;6.920;2022-08-20T01:14:22;22.60;99.90
3602;DHT22;1815;50.950;6.920;2022-08-20T01:17:00;22.60;99.90
3602;DHT22;1815;50.950;6.920;2022-08-20T01:19:42;22.50;99.90
3602;DHT22;1815;50.950;6.920;2022-08-20T01:22:09;22.50;99.90
3602;DHT22;1815;50.950;6.920;2022-08-20T01:25:02;22.50;99.90
3602;DHT22;1815;50.950;6.920;2022-08-20T01:27:30;22.50;99.90
3602;DHT22;1815;50.950;6.920;2022-08-20T01:29:56;22.40;99.90
3602;DHT22;1815;50.950;6.920;2022-08-20T01:32:23;22.40;99.90
3602;DHT22;1815;50.950;6.920;2022-08-20T01:34:49;22.40;99.90
3602;DHT22;1815;50.950;6.920;2022-08-20T01:37:14;22.40;99.90
3602;DHT22;1815;50.950;6.920;2022-08-20T01:39:41;22.40;99.90
3602;DHT22;1815;50.950;6.920;2022-08-20T01:42:10;22.40;99.90
3602;DHT22;1815;50.950;6.920;2022-08-20T01:44:41;22.40;99.90
3602;DHT22;1815;50.950;6.920;2022-08-20T01:47:17;22.40;99.90
3602;DHT22;1815;50.950;6.920;2022-08-20T01:49:47;22.40;99.90
3602;DHT22;1815;50.950;6.920;2022-08-20T01:55:13;22.30;99.90
3602;DHT22;1815;50.950;6.920;2022-08-20T01:57:40;22.30;99.90
3602;DHT22;1815;50.950;6.920;2022-08-20T02:00:08;22.30;99.90
3602;DHT22;1815;50.950;6.920;2022-08-20T02:02:34;22.30;99.90
3602;DHT22;1815;50.950;6.920;2022-08-20T02:05:00;22.20;99.90
3602;DHT22;1815;50.950;6.920;2022-08-20T02:07:26;22.20;99.90
3602;DHT22;1815;50.950;6.920;2022-08-20T02:09:57;22.20;99.90
3602;DHT22;1815;50.950;6.920;2022-08-20T02:12:22;22.20;99.90
3602;DHT22;1815;50.950;6.920;2022-08-20T02:14:50;22.10;99.90
3602;DHT22;1815;50.950;6.920;2022-08-20T02:17:17;22.10;99.90
3602;DHT22;1815;50.950;6.920;2022-08-20T02:25:09;22.00;99.90
3602;DHT22;1815;50.950;6.920;2022-08-20T02:27:37;22.00;99.90
3602;DHT22;1815;50.950;6.920;2022-08-20T02:30:10;22.00;99.90
3602;DHT22;1815;50.950;6.920;2022-08-20T02:32:37;21.90;99.90
3602;DHT22;1815;50.950;6.920;2022-08-20T02:35:06;21.90;99.90
3602;DHT22;1815;50.950;6.920;2022-08-20T02:37:34;21.90;99.90
3602;DHT22;1815;50.950;6.920;2022-08-20T02:40:00;21.90;99.90
3602;DHT22;1815;50.950;6.920;2022-08-20T02:42:26;21.90;99.90
3602;DHT22;1815;50.950;6.920;2022-08-20T02:44:52;21.90;99.90
3602;DHT22;1815;50.950;6.920;2022-08-20T02:47:19;21.90;99.90
3602;DHT22;1815;50.950;6.920;2022-08-20T02:49:44;21.90;99.90
3602;DHT22;1815;50.950;6.920;2022-08-20T02:52:10;21.90;99.90
3602;DHT22;1815;50.950;6.920;2022-08-20T02:54:36;21.90;99.90
3602;DHT22;1815;50.950;6.920;2022-08-20T02:57:02;22.00;99.90
3602;DHT22;1815;50.950;6.920;2022-08-20T02:59:28;22.00;99.90
3602;DHT22;1815;50.950;6.920;2022-08-20T03:01:54;22.00;99.90
3602;DHT22;1815;50.950;6.920;2022-08-20T03:04:20;22.10;99.90
3602;DHT22;1815;50.950;6.920;2022-08-20T03:06:46;22.10;99.90
3602;DHT22;1815;50.950;6.920;2022-08-20T03:09:11;22.10;99.90
3602;DHT22;1815;50.950;6.920;2022-08-20T03:11:37;22.20;99.90
3602;DHT22;1815;50.950;6.920;2022-08-20T03:14:05;22.20;99.90
3602;DHT22;1815;50.950;6.920;2022-08-20T03:16:31;22.20;99.90
3602;DHT22;1815;50.950;6.920;2022-08-20T03:18:57;22.30;99.90
3602;DHT22;1815;50.950;6.920;2022-08-20T03:21:23;22.30;99.90
3602;DHT22;1815;50.950;6.920;2022-08-20T03:23:49;22.30;99.90
3602;DHT22;1815;50.950;6.920;2022-08-20T03:26:14;22.30;99.90
3602;DHT22;1815;50.950;6.920;2022-08-20T03:28:42;22.40;99.90
3602;DHT22;1815;50.950;6.920;2022-08-20T03:31:08;22.40;99.90
3602;DHT22;1815;50.950;6.920;2022-08-20T03:33:34;22.40;99.90
3602;DHT22;1815;50.950;6.920;2022-08-20T03:36:00;22.40;99.90
3602;DHT22;1815;50.950;6.920;2022-08-20T03:38:26;22.50;99.90
3602;DHT22;1815;50.950;6.920;2022-08-20T03:40:52;22.50;99.90
3602;DHT22;1815;50.950;6.920;2022-08-20T03:43:18;22.50;99.90
3602;DHT22;1815;50.950;6.920;2022-08-20T03:45:44;22.50;99.90
3602;DHT22;1815;50.950;6.920;2022-08-20T03:48:15;22.50;99.90
3602;DHT22;1815;50.950;6.920;2022-08-20T03:50:42;22.50;99.90
3602;DHT22;1815;50.950;6.920;2022-08-20T03:53:12;22.50;99.90
3602;DHT22;1815;50.950;6.920;2022-08-20T03:55:38;22.60;99.90
3602;DHT22;1815;50.950;6.920;2022-08-20T03:58:06;22.60;99.90
3602;DHT22;1815;50.950;6.920;2022-08-20T04:00:47;22.60;99.90
3602;DHT22;1815;50.950;6.920;2022-08-20T04:03:14;22.60;99.90
3602;DHT22;1815;50.950;6.920;2022-08-20T04:05:40;22.60;99.90
3602;DHT22;1815;50.950;6.920;2022-08-20T04:08:08;22.60;99.90
3602;DHT22;1815;50.950;6.920;2022-08-20T04:10:35;22.60;99.90
3602;DHT22;1815;50.950;6.920;2022-08-20T04:13:02;22.60;99.90
3602;DHT22;1815;50.950;6.920;2022-08-20T04:15:28;22.50;99.90
3602;DHT22;1815;50.950;6.920;2022-08-20T04:17:54;22.50;99.90
3602;DHT22;1815;50.950;6.920;2022-08-20T04:20:22;22.40;99.90
3602;DHT22;1815;50.950;6.920;2022-08-20T04:22:54;22.40;99.90
3602;DHT22;1815;50.950;6.920;2022-08-20T04:25:20;22.30;99.90
3602;DHT22;1815;50.950;6.920;2022-08-20T04:27:46;22.30;99.90
3602;DHT22;1815;50.950;6.920;2022-08-20T04:30:17;22.20;99.90
3602;DHT22;1815;50.950;6.920;2022-08-20T04:32:43;22.10;99.90
3602;DHT22;1815;50.950;6.920;2022-08-20T04:35:12;22.00;99.90
3602;DHT22;1815;50.950;6.920;2022-08-20T04:37:40;21.90;99.90
3602;DHT22;1815;50.950;6.920;2022-08-20T04:40:10;21.80;99.90
3602;DHT22;1815;50.950;6.920;2022-08-20T04:42:55;21.80;99.90
3602;DHT22;1815;50.950;6.920;2022-08-20T04:45:22;21.70;99.90
3602;DHT22;1815;50.950;6.920;2022-08-20T04:47:48;21.70;99.90
3602;DHT22;1815;50.950;6.920;2022-08-20T04:50:16;21.60;99.90
3602;DHT22;1815;50.950;6.920;2022-08-20T04:52:42;21.60;99.90
3602;DHT22;1815;50.950;6.920;2022-08-20T04:55:09;21.60;99.90
3602;DHT22;1815;50.950;6.920;2022-08-20T04:57:35;21.50;99.90
3602;DHT22;1815;50.950;6.920;2022-08-20T05:00:13;21.50;99.90
3602;DHT22;1815;50.950;6.920;2022-08-20T05:02:40;21.50;99.90
3602;DHT22;1815;50.950;6.920;2022-08-20T05:05:07;21.50;99.90
3602;DHT22;1815;50.950;6.920;2022-08-20T05:07:39;21.50;99.90
3602;DHT22;1815;50.950;6.920;2022-08-20T05:10:05;21.50;99.90
3602;DHT22;1815;50.950;6.920;2022-08-20T05:12:31;21.50;99.90
3602;DHT22;1815;50.950;6.920;2022-08-20T05:14:57;21.50;99.90
3602;DHT22;1815;50.950;6.920;2022-08-20T05:17:23;21.50;99.90
3602;DHT22;1815;50.950;6.920;2022-08-20T05:19:51;21.50;99.90
3602;DHT22;1815;50.950;6.920;2022-08-20T05:22:17;21.50;99.90
3602;DHT22;1815;50.950;6.920;2022-08-20T05:24:43;21.50;99.90
3602;DHT22;1815;50.950;6.920;2022-08-20T05:27:09;21.50;99.90
3602;DHT22;1815;50.950;6.920;2022-08-20T05:29:34;21.50;99.90
3602;DHT22;1815;50.950;6.920;2022-08-20T05:32:00;21.50;99.90
3602;DHT22;1815;50.950;6.920;2022-08-20T05:34:27;21.50;99.90
3602;DHT22;1815;50.950;6.920;2022-08-20T05:36:53;21.60;99.90
3602;DHT22;1815;50.950;6.920;2022-08-20T05:39:21;21.60;99.90
3602;DHT22;1815;50.950;6.920;2022-08-20T05:41:48;21.60;99.90
3602;DHT22;1815;50.950;6.920;2022-08-20T05:44:15;21.60;99.90
3602;DHT22;1815;50.950;6.920;2022-08-20T05:46:44;21.60;99.90
3602;DHT22;1815;50.950;6.920;2022-08-20T05:49:15;21.50;99.90
3602;DHT22;1815;50.950;6.920;2022-08-20T05:51:42;21.60;99.90
3602;DHT22;1815;50.950;6.920;2022-08-20T05:54:08;21.60;99.90
3602;DHT22;1815;50.950;6.920;2022-08-20T05:56:34;21.60;99.90
3602;DHT22;1815;50.950;6.920;2022-08-20T05:59:03;21.60;99.90
3602;DHT22;1815;50.950;6.920;2022-08-20T06:01:30;21.60;99.90
3602;DHT22;1815;50.950;6.920;2022-08-20T06:03:57;21.60;99.90
3602;DHT22;1815;50.950;6.920;2022-08-20T06:06:41;21.60;99.90
3602;DHT22;1815;50.950;6.920;2022-08-20T06:09:07;21.70;99.90
3602;DHT22;1815;50.950;6.920;2022-08-20T06:11:33;21.70;99.90
3602;DHT22;1815;50.950;6.920;2022-08-20T06:13:59;21.60;99.90
3602;DHT22;1815;50.950;6.920;2022-08-20T06:16:25;21.70;99.90
3602;DHT22;1815;50.950;6.920;2022-08-20T06:18:51;21.60;99.90
3602;DHT22;1815;50.950;6.920;2022-08-20T06:21:17;21.60;99.90
3602;DHT22;1815;50.950;6.920;2022-08-20T06:23:42;21.70;99.90
3602;DHT22;1815;50.950;6.920;2022-08-20T06:26:08;21.60;99.90
3602;DHT22;1815;50.950;6.920;2022-08-20T06:28:34;21.70;99.90
3602;DHT22;1815;50.950;6.920;2022-08-20T06:31:01;21.70;99.90
3602;DHT22;1815;50.950;6.920;2022-08-20T06:33:27;21.70;99.90
3602;DHT22;1815;50.950;6.920;2022-08-20T06:35:53;21.70;99.90
3602;DHT22;1815;50.950;6.920;2022-08-20T06:38:20;21.70;99.90
3602;DHT22;1815;50.950;6.920;2022-08-20T06:40:46;21.70;99.90
3602;DHT22;1815;50.950;6.920;2022-08-20T06:43:12;21.70;99.90
3602;DHT22;1815;50.950;6.920;2022-08-20T06:45:38;21.70;99.90
3602;DHT22;1815;50.950;6.920;2022-08-20T06:48:11;21.80;99.90
3602;DHT22;1815;50.950;6.920;2022-08-20T06:50:42;21.70;99.90
3602;DHT22;1815;50.950;6.920;2022-08-20T06:53:09;21.80;99.90
3602;DHT22;1815;50.950;6.920;2022-08-20T06:55:37;21.80;99.90
3602;DHT22;1815;50.950;6.920;2022-08-20T06:58:06;21.90;99.90
3602;DHT22;1815;50.950;6.920;2022-08-20T07:00:34;22.00;99.90
3602;DHT22;1815;50.950;6.920;2022-08-20T07:03:01;22.00;99.90
3602;DHT22;1815;50.950;6.920;2022-08-20T07:05:28;22.10;99.90
3602;DHT22;1815;50.950;6.920;2022-08-20T07:07:54;22.20;99.90
3602;DHT22;1815;50.950;6.920;2022-08-20T07:10:22;22.40;99.90
3602;DHT22;1815;50.950;6.920;2022-08-20T07:12:49;22.80;99.90
3602;DHT22;1815;50.950;6.920;2022-08-20T07:15:17;23.20;99.90
3602;DHT22;1815;50.950;6.920;2022-08-20T07:17:51;23.50;99.90
3602;DHT22;1815;50.950;6.920;2022-08-20T07:20:17;23.70;99.90
3602;DHT22;1815;50.950;6.920;2022-08-20T07:22:43;24.20;99.90
3602;DHT22;1815;50.950;6.920;2022-08-20T07:25:14;24.80;99.90
3602;DHT22;1815;50.950;6.920;2022-08-20T07:27:41;25.50;99.90
3602;DHT22;1815;50.950;6.920;2022-08-20T07:30:30;26.30;99.90
3602;DHT22;1815;50.950;6.920;2022-08-20T07:33:13;27.10;99.90
3602;DHT22;1815;50.950;6.920;2022-08-20T07:35:40;28.10;99.90
3602;DHT22;1815;50.950;6.920;2022-08-20T07:38:11;29.00;99.90
3602;DHT22;1815;50.950;6.920;2022-08-20T07:40:37;29.80;99.90
3602;DHT22;1815;50.950;6.920;2022-08-20T07:43:03;30.60;99.90
3602;DHT22;1815;50.950;6.920;2022-08-20T07:45:29;31.20;99.90
3602;DHT22;1815;50.950;6.920;2022-08-20T07:48:05;31.80;99.90
3602;DHT22;1815;50.950;6.920;2022-08-20T07:50:31;32.10;99.90
3602;DHT22;1815;50.950;6.920;2022-08-20T07:52:57;32.60;99.90
3602;DHT22;1815;50.950;6.920;2022-08-20T07:55:25;33.10;99.90
3602;DHT22;1815;50.950;6.920;2022-08-20T07:57:51;33.30;99.90
3602;DHT22;1815;50.950;6.920;2022-08-20T08:00:20;33.30;99.90
3602;DHT22;1815;50.950;6.920;2022-08-20T08:02:46;33.50;99.90
3602;DHT22;1815;50.950;6.920;2022-08-20T08:05:13;33.80;99.90
3602;DHT22;1815;50.950;6.920;2022-08-20T08:07:40;34.10;99.90
3602;DHT22;1815;50.950;6.920;2022-08-20T08:10:08;34.30;99.90
3602;DHT22;1815;50.950;6.920;2022-08-20T08:12:39;34.30;99.90
3602;DHT22;1815;50.950;6.920;2022-08-20T08:15:10;34.00;98.90
3602;DHT22;1815;50.950;6.920;2022-08-20T08:17:37;33.50;97.60
3602;DHT22;1815;50.950;6.920;2022-08-20T08:20:05;32.90;97.10
3602;DHT22;1815;50.950;6.920;2022-08-20T08:22:32;32.30;96.70
3602;DHT22;1815;50.950;6.920;2022-08-20T08:24:58;31.60;96.80
3602;DHT22;1815;50.950;6.920;2022-08-20T08:27:30;30.90;96.70
3602;DHT22;1815;50.950;6.920;2022-08-20T08:30:03;30.20;96.70
3602;DHT22;1815;50.950;6.920;2022-08-20T08:32:29;29.50;97.20
3602;DHT22;1815;50.950;6.920;2022-08-20T08:34:57;28.90;98.00
3602;DHT22;1815;50.950;6.920;2022-08-20T08:37:23;28.40;98.80
3602;DHT22;1815;50.950;6.920;2022-08-20T08:39:49;28.00;99.30
3602;DHT22;1815;50.950;6.920;2022-08-20T08:44:54;27.30;99.90
3602;DHT22;1815;50.950;6.920;2022-08-20T08:47:31;27.00;99.90
3602;DHT22;1815;50.950;6.920;2022-08-20T08:50:05;26.80;99.90
3602;DHT22;1815;50.950;6.920;2022-08-20T08:52:34;26.70;99.90
3602;DHT22;1815;50.950;6.920;2022-08-20T08:55:04;26.70;99.90
3602;DHT22;1815;50.950;6.920;2022-08-20T08:57:31;26.60;99.90
3602;DHT22;1815;50.950;6.920;2022-08-20T09:00:06;26.60;99.90
3602;DHT22;1815;50.950;6.920;2022-08-20T09:02:34;26.50;99.90
3602;DHT22;1815;50.950;6.920;2022-08-20T09:05:03;26.40;99.90
3602;DHT22;1815;50.950;6.920;2022-08-20T09:07:35;26.40;99.90
3602;DHT22;1815;50.950;6.920;2022-08-20T09:10:02;26.40;99.90
3602;DHT22;1815;50.950;6.920;2022-08-20T09:12:28;26.30;99.90
3602;DHT22;1815;50.950;6.920;2022-08-20T09:14:54;26.30;99.90
3602;DHT22;1815;50.950;6.920;2022-08-20T09:17:22;26.40;99.90
3602;DHT22;1815;50.950;6.920;2022-08-20T09:19:48;26.30;99.90
3602;DHT22;1815;50.950;6.920;2022-08-20T09:22:19;26.30;99.90
3602;DHT22;1815;50.950;6.920;2022-08-20T09:24:45;26.20;99.90
3602;DHT22;1815;50.950;6.920;2022-08-20T09:27:12;26.20;99.90
3602;DHT22;1815;50.950;6.920;2022-08-20T09:29:38;26.20;99.90
3602;DHT22;1815;50.950;6.920;2022-08-20T09:32:18;26.20;99.90
3602;DHT22;1815;50.950;6.920;2022-08-20T09:34:47;26.10;99.90
3602;DHT22;1815;50.950;6.920;2022-08-20T09:37:14;26.20;99.90
3602;DHT22;1815;50.950;6.920;2022-08-20T09:39:40;26.20;99.90
3602;DHT22;1815;50.950;6.920;2022-08-20T09:42:08;26.20;99.90
3602;DHT22;1815;50.950;6.920;2022-08-20T09:44:35;26.30;99.90
3602;DHT22;1815;50.950;6.920;2022-08-20T09:47:00;26.30;99.90
3602;DHT22;1815;50.950;6.920;2022-08-20T09:49:26;26.30;99.90
3602;DHT22;1815;50.950;6.920;2022-08-20T09:51:52;26.30;99.90
3602;DHT22;1815;50.950;6.920;2022-08-20T09:54:19;26.20;99.90
3602;DHT22;1815;50.950;6.920;2022-08-20T09:56:45;26.10;99.90
3602;DHT22;1815;50.950;6.920;2022-08-20T09:59:13;26.00;99.90
3602;DHT22;1815;50.950;6.920;2022-08-20T10:01:41;25.90;99.90
3602;DHT22;1815;50.950;6.920;2022-08-20T10:04:07;25.70;99.90
3602;DHT22;1815;50.950;6.920;2022-08-20T10:06:38;25.70;99.90
3602;DHT22;1815;50.950;6.920;2022-08-20T10:09:04;25.50;99.90
3602;DHT22;1815;50.950;6.920;2022-08-20T10:11:30;25.40;99.90
3602;DHT22;1815;50.950;6.920;2022-08-20T10:13:57;25.30;99.90
3602;DHT22;1815;50.950;6.920;2022-08-20T10:16:23;25.30;99.90
3602;DHT22;1815;50.950;6.920;2022-08-20T10:18:49;25.30;99.90
3602;DHT22;1815;50.950;6.920;2022-08-20T10:21:15;25.30;99.90
3602;DHT22;1815;50.950;6.920;2022-08-20T10:23:42;25.30;99.90
3602;DHT22;1815;50.950;6.920;2022-08-20T10:26:09;25.30;99.90
3602;DHT22;1815;50.950;6.920;2022-08-20T10:28:35;25.30;99.90
3602;DHT22;1815;50.950;6.920;2022-08-20T10:31:01;25.30;99.90
3602;DHT22;1815;50.950;6.920;2022-08-20T10:33:29;25.30;99.90
3602;DHT22;1815;50.950;6.920;2022-08-20T10:35:54;25.40;99.90
3602;DHT22;1815;50.950;6.920;2022-08-20T10:38:20;25.40;99.90
3602;DHT22;1815;50.950;6.920;2022-08-20T10:40:46;25.50;99.90
3602;DHT22;1815;50.950;6.920;2022-08-20T10:43:12;25.50;99.90
3602;DHT22;1815;50.950;6.920;2022-08-20T10:45:37;25.60;99.90
3602;DHT22;1815;50.950;6.920;2022-08-20T10:48:03;25.70;99.90
3602;DHT22;1815;50.950;6.920;2022-08-20T10:50:29;25.70;99.90
3602;DHT22;1815;50.950;6.920;2022-08-20T10:52:55;25.80;99.90
3602;DHT22;1815;50.950;6.920;2022-08-20T10:55:21;25.80;99.90
3602;DHT22;1815;50.950;6.920;2022-08-20T10:57:46;25.80;99.90
3602;DHT22;1815;50.950;6.920;2022-08-20T11:00:14;25.80;99.90
3602;DHT22;1815;50.950;6.920;2022-08-20T11:02:41;25.70;99.90
3602;DHT22;1815;50.950;6.920;2022-08-20T11:05:08;25.80;99.90
3602;DHT22;1815;50.950;6.920;2022-08-20T11:07:40;26.00;99.90
3602;DHT22;1815;50.950;6.920;2022-08-20T11:10:07;26.30;99.90
3602;DHT22;1815;50.950;6.920;2022-08-20T11:12:34;26.50;99.90
3602;DHT22;1815;50.950;6.920;2022-08-20T11:14:59;26.60;99.90
3602;DHT22;1815;50.950;6.920;2022-08-20T11:17:29;26.80;99.90
3602;DHT22;1815;50.950;6.920;2022-08-20T11:19:56;26.80;99.90
3602;DHT22;1815;50.950;6.920;2022-08-20T11:22:22;26.90;99.90
3602;DHT22;1815;50.950;6.920;2022-08-20T11:24:49;27.10;99.90
3602;DHT22;1815;50.950;6.920;2022-08-20T11:27:21;27.40;99.90
3602;DHT22;1815;50.950;6.920;2022-08-20T11:29:47;27.50;99.90
3602;DHT22;1815;50.950;6.920;2022-08-20T11:32:13;27.60;99.90
3602;DHT22;1815;50.950;6.920;2022-08-20T11:34:39;27.60;99.90
3602;DHT22;1815;50.950;6.920;2022-08-20T11:37:04;27.90;99.90
3602;DHT22;1815;50.950;6.920;2022-08-20T11:39:30;28.10;99.90
3602;DHT22;1815;50.950;6.920;2022-08-20T11:41:56;28.20;99.90
3602;DHT22;1815;50.950;6.920;2022-08-20T11:44:22;28.40;99.90
3602;DHT22;1815;50.950;6.920;2022-08-20T11:46:48;28.50;99.90
3602;DHT22;1815;50.950;6.920;2022-08-20T11:49:14;28.60;99.90
3602;DHT22;1815;50.950;6.920;2022-08-20T11:51:40;28.70;99.90
3602;DHT22;1815;50.950;6.920;2022-08-20T11:54:05;28.70;99.90
3602;DHT22;1815;50.950;6.920;2022-08-20T11:56:31;28.90;99.90
3602;DHT22;1815;50.950;6.920;2022-08-20T11:58:58;29.20;99.90
3602;DHT22;1815;50.950;6.920;2022-08-20T12:01:23;29.60;99.90
3602;DHT22;1815;50.950;6.920;2022-08-20T12:03:49;30.00;99.90
3602;DHT22;1815;50.950;6.920;2022-08-20T12:06:15;30.20;99.90
3602;DHT22;1815;50.950;6.920;2022-08-20T12:08:41;30.30;99.10
3602;DHT22;1815;50.950;6.920;2022-08-20T12:11:07;30.30;98.00
3602;DHT22;1815;50.950;6.920;2022-08-20T12:13:35;30.20;97.10
3602;DHT22;1815;50.950;6.920;2022-08-20T12:16:02;30.20;96.70
3602;DHT22;1815;50.950;6.920;2022-08-20T12:18:32;30.20;96.30
3602;DHT22;1815;50.950;6.920;2022-08-20T12:20:58;30.00;95.50
3602;DHT22;1815;50.950;6.920;2022-08-20T12:23:24;29.90;95.80
3602;DHT22;1815;50.950;6.920;2022-08-20T12:25:50;29.80;96.00
3602;DHT22;1815;50.950;6.920;2022-08-20T12:28:16;29.90;96.60
3602;DHT22;1815;50.950;6.920;2022-08-20T12:30:42;30.00;96.80
3602;DHT22;1815;50.950;6.920;2022-08-20T12:33:07;30.20;96.70
3602;DHT22;1815;50.950;6.920;2022-08-20T12:35:34;30.20;95.50
3602;DHT22;1815;50.950;6.920;2022-08-20T12:38:04;30.20;95.00
3602;DHT22;1815;50.950;6.920;2022-08-20T12:40:31;30.20;94.30
3602;DHT22;1815;50.950;6.920;2022-08-20T12:42:58;30.20;94.30
3602;DHT22;1815;50.950;6.920;2022-08-20T12:45:24;30.10;94.00
3602;DHT22;1815;50.950;6.920;2022-08-20T12:47:50;29.90;93.50
3602;DHT22;1815;50.950;6.920;2022-08-20T12:50:20;29.80;93.20
3602;DHT22;1815;50.950;6.920;2022-08-20T12:52:46;29.60;92.50
3602;DHT22;1815;50.950;6.920;2022-08-20T12:55:15;29.40;92.40
3602;DHT22;1815;50.950;6.920;2022-08-20T12:57:46;29.30;92.40
3602;DHT22;1815;50.950;6.920;2022-08-20T13:00:15;29.20;92.50
3602;DHT22;1815;50.950;6.920;2022-08-20T13:02:43;29.10;92.20
3602;DHT22;1815;50.950;6.920;2022-08-20T13:05:11;29.00;92.20
3602;DHT22;1815;50.950;6.920;2022-08-20T13:07:37;28.90;92.20
3602;DHT22;1815;50.950;6.920;2022-08-20T13:10:04;28.80;92.20
3602;DHT22;1815;50.950;6.920;2022-08-20T13:12:30;28.70;91.90
3602;DHT22;1815;50.950;6.920;2022-08-20T13:14:56;28.70;91.60
3602;DHT22;1815;50.950;6.920;2022-08-20T13:17:22;28.60;91.80
3602;DHT22;1815;50.950;6.920;2022-08-20T13:19:48;28.50;91.80
3602;DHT22;1815;50.950;6.920;2022-08-20T13:22:14;28.50;91.90
3602;DHT22;1815;50.950;6.920;2022-08-20T13:24:41;28.50;91.80
3602;DHT22;1815;50.950;6.920;2022-08-20T13:27:16;28.40;91.30
3602;DHT22;1815;50.950;6.920;2022-08-20T13:29:50;28.30;90.80
3602;DHT22;1815;50.950;6.920;2022-08-20T13:32:16;28.20;91.00
3602;DHT22;1815;50.950;6.920;2022-08-20T13:34:42;28.10;91.10
3602;DHT22;1815;50.950;6.920;2022-08-20T13:37:18;28.10;91.10
3602;DHT22;1815;50.950;6.920;2022-08-20T13:39:44;28.00;91.00
3602;DHT22;1815;50.950;6.920;2022-08-20T13:42:11;27.90;91.20
3602;DHT22;1815;50.950;6.920;2022-08-20T13:44:37;27.80;91.10
3602;DHT22;1815;50.950;6.920;2022-08-20T13:49:44;27.60;90.70
3602;DHT22;1815;50.950;6.920;2022-08-20T13:52:10;27.50;90.60
3602;DHT22;1815;50.950;6.920;2022-08-20T13:54:36;27.50;90.40
3602;DHT22;1815;50.950;6.920;2022-08-20T13:57:13;27.40;90.40
3602;DHT22;1815;50.950;6.920;2022-08-20T13:59:45;27.40;90.00
3602;DHT22;1815;50.950;6.920;2022-08-20T14:02:11;27.40;90.00
3602;DHT22;1815;50.950;6.920;2022-08-20T14:04:38;27.40;89.50
3602;DHT22;1815;50.950;6.920;2022-08-20T14:07:22;27.30;90.00
3602;DHT22;1815;50.950;6.920;2022-08-20T14:09:50;27.30;88.70
3602;DHT22;1815;50.950;6.920;2022-08-20T14:12:18;27.20;88.10
3602;DHT22;1815;50.950;6.920;2022-08-20T14:14:45;27.20;87.30
3602;DHT22;1815;50.950;6.920;2022-08-20T14:19:54;27.20;84.60
3602;DHT22;1815;50.950;6.920;2022-08-20T14:22:21;27.30;85.70
3602;DHT22;1815;50.950;6.920;2022-08-20T14:24:47;27.30;85.90
3602;DHT22;1815;50.950;6.920;2022-08-20T14:27:15;27.40;85.90
3602;DHT22;1815;50.950;6.920;2022-08-20T14:29:43;27.40;85.30
3602;DHT22;1815;50.950;6.920;2022-08-20T14:32:10;27.40;83.90
3602;DHT22;1815;50.950;6.920;2022-08-20T14:34:37;27.40;83.50
3602;DHT22;1815;50.950;6.920;2022-08-20T14:37:24;27.40;83.20
3602;DHT22;1815;50.950;6.920;2022-08-20T14:39:52;27.40;82.40
3602;DHT22;1815;50.950;6.920;2022-08-20T14:42:19;27.50;82.60
3602;DHT22;1815;50.950;6.920;2022-08-20T14:44:47;27.50;82.50
3602;DHT22;1815;50.950;6.920;2022-08-20T14:47:22;27.50;82.70
3602;DHT22;1815;50.950;6.920;2022-08-20T14:49:50;27.50;81.80
3602;DHT22;1815;50.950;6.920;2022-08-20T14:52:17;27.50;81.50
3602;DHT22;1815;50.950;6.920;2022-08-20T14:54:45;27.60;80.40
3602;DHT22;1815;50.950;6.920;2022-08-20T14:57:13;27.60;79.50
3602;DHT22;1815;50.950;6.920;2022-08-20T14:59:40;27.60;79.10
3602;DHT22;1815;50.950;6.920;2022-08-20T15:02:09;27.60;78.80
3602;DHT22;1815;50.950;6.920;2022-08-20T15:04:36;27.60;79.40
3602;DHT22;1815;50.950;6.920;2022-08-20T15:07:04;27.60;78.00
3602;DHT22;1815;50.950;6.920;2022-08-20T15:09:33;27.60;77.10
3602;DHT22;1815;50.950;6.920;2022-08-20T15:11:59;27.60;76.40
3602;DHT22;1815;50.950;6.920;2022-08-20T15:14:26;27.60;76.00
3602;DHT22;1815;50.950;6.920;2022-08-20T15:16:53;27.60;74.30
3602;DHT22;1815;50.950;6.920;2022-08-20T15:19:20;27.60;73.30
3602;DHT22;1815;50.950;6.920;2022-08-20T15:21:47;27.60;73.80
3602;DHT22;1815;50.950;6.920;2022-08-20T15:24:14;27.60;73.70
3602;DHT22;1815;50.950;6.920;2022-08-20T15:26:41;27.60;72.80
3602;DHT22;1815;50.950;6.920;2022-08-20T15:29:06;27.60;72.10
3602;DHT22;1815;50.950;6.920;2022-08-20T15:31:32;27.60;72.10
3602;DHT22;1815;50.950;6.920;2022-08-20T15:33:58;27.60;71.40
3602;DHT22;1815;50.950;6.920;2022-08-20T15:36:24;27.60;71.30
3602;DHT22;1815;50.950;6.920;2022-08-20T15:38:50;27.60;70.90
3602;DHT22;1815;50.950;6.920;2022-08-20T15:41:16;27.60;70.60
3602;DHT22;1815;50.950;6.920;2022-08-20T15:43:42;27.70;70.50
3602;DHT22;1815;50.950;6.920;2022-08-20T15:46:08;27.70;70.60
3602;DHT22;1815;50.950;6.920;2022-08-20T15:48:37;27.70;70.00
3602;DHT22;1815;50.950;6.920;2022-08-20T15:54:26;27.70;69.40
3602;DHT22;1815;50.950;6.920;2022-08-20T16:01:46;27.70;69.40
3602;DHT22;1815;50.950;6.920;2022-08-20T16:07:04;27.70;68.90
3602;DHT22;1815;50.950;6.920;2022-08-20T16:09:44;27.70;68.90
3602;DHT22;1815;50.950;6.920;2022-08-20T16:12:21;27.70;68.00
3602;DHT22;1815;50.950;6.920;2022-08-20T16:14:50;27.70;68.20
3602;DHT22;1815;50.950;6.920;2022-08-20T16:17:39;27.70;68.60
3602;DHT22;1815;50.950;6.920;2022-08-20T16:23:00;27.70;68.20
3602;DHT22;1815;50.950;6.920;2022-08-20T16:25:30;27.80;68.30
3602;DHT22;1815;50.950;6.920;2022-08-20T16:28:24;27.70;67.80
3602;DHT22;1815;50.950;6.920;2022-08-20T16:30:58;27.70;67.60
3602;DHT22;1815;50.950;6.920;2022-08-20T16:36:28;27.70;67.60
3602;DHT22;1815;50.950;6.920;2022-08-20T16:38:53;27.60;67.50
3602;DHT22;1815;50.950;6.920;2022-08-20T16:41:29;27.60;67.60